Time;durP1;ratioP1;P1;durP2;ratioP2;P2;SDS_P1;SDS_P2;PMS_P1;PMS_P2;Temp;Humidity;BMP_temperature;BMP_pressure;BME280_temperature;BME280_humidity;BME280_pressure;Samples;Min_cycle;Max_cycle;Signal;HPM_P1;HPM_P2
2022/10/20 00:26:22;;;;;;;0.30;0.30;;;;;;;;;;6154418;22;20099;-93
2022/10/20 02:33:17;;;;;;;0.45;0.45;;;;;;;;;;6250504;22;20074;-94
2022/10/20 02:46:16;;;;;;;0.40;0.40;;;;;;;;;;6166562;22;20031;-94
2022/10/20 03:17:54;;;;;;;0.40;0.40;;;;;;;;;;6295593;22;20039;-95
2022/10/20 03:23:21;;;;;;;0.30;0.30;;;;;;;;;;6297079;22;20051;-94
2022/10/20 03:26:14;;;;;;;0.30;0.30;;;;;;;;;;6243122;23;20011;-93
2022/10/20 04:20:52;;;;;;;0.40;0.40;;;;;;;;;;6204832;22;20000;-95
2022/10/20 06:33:23;;;;;;;0.50;0.50;;;;;;;;;;6272148;22;20036;-93
2022/10/20 07:20:09;;;;;;;0.30;0.30;;;;;;;;;;6298041;22;20071;-92
2022/10/20 07:25:11;;;;;;;0.50;0.50;;;;;;;;;;6331616;22;20019;-92
2022/10/20 08:01:23;;;;;;;0.55;0.55;;;;;;;;;;6292651;22;20107;-95
2022/10/20 08:03:53;;;;;;;0.45;0.45;;;;;;;;;;6267563;22;20020;-95
2022/10/20 08:06:19;;;;;;;0.40;0.40;;;;;;;;;;6241766;23;20068;-95
2022/10/20 08:08:49;;;;;;;0.40;0.40;;;;;;;;;;6242418;23;20024;-93
2022/10/20 08:11:15;;;;;;;0.38;0.38;;;;;;;;;;6242683;23;20014;-96
2022/10/20 08:13:42;;;;;;;0.40;0.40;;;;;;;;;;6268589;23;20004;-95
2022/10/20 08:16:08;;;;;;;0.40;0.40;;;;;;;;;;6242227;22;20080;-94
2022/10/20 08:18:35;;;;;;;0.40;0.40;;;;;;;;;;6242996;23;20046;-94
2022/10/20 08:21:07;;;;;;;0.40;0.40;;;;;;;;;;6241963;22;20027;-94
2022/10/20 08:23:33;;;;;;;0.50;0.50;;;;;;;;;;6242625;22;20020;-92
2022/10/20 08:31:22;;;;;;;0.30;0.30;;;;;;;;;;6297706;22;20011;-93
2022/10/20 08:33:48;;;;;;;0.47;0.47;;;;;;;;;;6248533;22;20024;-94
2022/10/20 08:36:15;;;;;;;0.40;0.40;;;;;;;;;;6247726;22;20011;-92
2022/10/20 08:38:42;;;;;;;0.45;0.45;;;;;;;;;;6248787;22;20024;-93
2022/10/20 08:41:23;;;;;;;0.47;0.47;;;;;;;;;;6247747;22;20067;-92
2022/10/20 08:43:51;;;;;;;0.32;0.32;;;;;;;;;;6248094;22;20059;-93
2022/10/20 08:46:23;;;;;;;0.30;0.30;;;;;;;;;;6273988;22;20012;-94
2022/10/20 08:48:50;;;;;;;0.40;0.40;;;;;;;;;;6248081;22;20119;-92
2022/10/20 09:07:02;;;;;;;0.22;0.22;;;;;;;;;;6270237;22;20024;-95
2022/10/20 09:14:40;;;;;;;0.25;0.25;;;;;;;;;;6257446;22;20031;-96
2022/10/20 09:17:12;;;;;;;0.40;0.40;;;;;;;;;;6217600;23;20020;-90
2022/10/20 09:19:38;;;;;;;0.40;0.40;;;;;;;;;;6218011;23;20468;-94
2022/10/20 09:24:46;;;;;;;0.40;0.40;;;;;;;;;;6300260;22;20019;-95
2022/10/20 09:27:19;;;;;;;0.40;0.40;;;;;;;;;;6273335;22;20024;-93
2022/10/20 09:29:45;;;;;;;0.40;0.40;;;;;;;;;;6248643;22;20055;-94
2022/10/20 09:45:27;;;;;;;0.43;0.43;;;;;;;;;;6102264;22;20352;-94
2022/10/20 09:48:01;;;;;;;0.40;0.40;;;;;;;;;;6194307;23;20022;-95
2022/10/20 09:53:14;;;;;;;0.35;0.35;;;;;;;;;;6295492;22;20277;-91
2022/10/20 09:55:45;;;;;;;0.30;0.30;;;;;;;;;;6247773;22;20024;-94
2022/10/20 09:58:28;;;;;;;0.30;0.30;;;;;;;;;;6250072;22;20020;-96
2022/10/20 10:03:38;;;;;;;0.35;0.35;;;;;;;;;;6281591;22;20095;-94
2022/10/20 10:06:27;;;;;;;0.30;0.30;;;;;;;;;;6243321;23;20024;-93
2022/10/20 10:08:53;;;;;;;0.50;0.50;;;;;;;;;;6243697;23;20026;-95
2022/10/20 10:11:23;;;;;;;0.30;0.30;;;;;;;;;;6244061;23;20078;-95
2022/10/20 10:13:55;;;;;;;0.30;0.30;;;;;;;;;;6246679;23;20051;-94
2022/10/20 10:24:22;;;;;;;0.40;0.40;;;;;;;;;;6255968;22;20028;-92
2022/10/20 10:29:24;;;;;;;0.30;0.30;;;;;;;;;;6304864;22;20023;-92
2022/10/20 10:31:56;;;;;;;0.30;0.30;;;;;;;;;;6304968;22;20068;-92
2022/10/20 10:34:30;;;;;;;0.28;0.28;;;;;;;;;;6277870;22;20018;-93
2022/10/20 10:36:57;;;;;;;0.32;0.32;;;;;;;;;;6277851;22;20003;-93
2022/10/20 10:49:46;;;;;;;0.20;0.20;;;;;;;;;;6268639;22;20075;-93
2022/10/20 10:52:21;;;;;;;0.28;0.28;;;;;;;;;;6241407;22;20007;-92
2022/10/20 10:55:06;;;;;;;;;;;;;;;;;;6242117;23;20004;-90
2022/10/20 11:03:01;;;;;;;0.30;0.30;;;;;;;;;;6251153;22;20130;-92
2022/10/20 11:13:21;;;;;;;0.30;0.30;;;;;;;;;;6161069;22;20054;-94
2022/10/20 11:34:10;;;;;;;0.20;0.20;;;;;;;;;;6169004;22;20011;-92
2022/10/20 11:42:01;;;;;;;0.20;0.20;;;;;;;;;;6298756;22;20023;-90
2022/10/20 11:44:35;;;;;;;0.30;0.30;;;;;;;;;;6247256;22;20030;-92
2022/10/20 11:50:11;;;;;;;0.20;0.20;;;;;;;;;;6278232;22;20091;-90
2022/10/20 11:52:57;;;;;;;0.30;0.30;;;;;;;;;;6234888;22;20024;-91
2022/10/20 11:55:42;;;;;;;0.25;0.25;;;;;;;;;;6241769;23;20020;-91
2022/10/20 11:58:15;;;;;;;0.20;0.20;;;;;;;;;;6241364;23;20123;-92
2022/10/20 12:03:23;;;;;;;0.40;0.40;;;;;;;;;;6222943;22;20051;-92
2022/10/20 12:05:58;;;;;;;0.20;0.20;;;;;;;;;;6242233;23;20020;-91
2022/10/20 12:13:39;;;;;;;0.10;0.10;;;;;;;;;;6265150;22;20024;-93
2022/10/20 12:16:07;;;;;;;0.30;0.30;;;;;;;;;;6215730;22;20015;-93
2022/10/20 12:21:42;;;;;;;0.20;0.20;;;;;;;;;;6257031;22;20093;-92
2022/10/20 12:24:29;;;;;;;0.30;0.30;;;;;;;;;;6242202;23;20024;-91
2022/10/20 12:27:11;;;;;;;0.30;0.30;;;;;;;;;;6243071;23;20020;-91
2022/10/20 12:29:44;;;;;;;0.22;0.22;;;;;;;;;;6242684;23;20025;-92
2022/10/20 12:32:35;;;;;;;0.28;0.28;;;;;;;;;;6268480;22;20027;-91
2022/10/20 12:40:22;;;;;;;0.30;0.30;;;;;;;;;;6187312;22;20011;-93
2022/10/20 12:45:52;;;;;;;0.40;0.40;;;;;;;;;;6254793;22;20032;-91
2022/10/20 12:48:23;;;;;;;0.10;0.10;;;;;;;;;;6241738;23;20042;-91
2022/10/20 12:50:50;;;;;;;0.20;0.20;;;;;;;;;;6243608;23;20075;-92
2022/10/20 12:53:16;;;;;;;0.30;0.30;;;;;;;;;;6244369;23;20030;-96
2022/10/20 12:55:56;;;;;;;0.20;0.20;;;;;;;;;;6269499;22;20335;-92
2022/10/20 12:58:22;;;;;;;0.30;0.30;;;;;;;;;;6245101;23;20220;-92
2022/10/20 13:00:57;;;;;;;0.40;0.40;;;;;;;;;;6245353;23;20020;-92
2022/10/20 13:03:45;;;;;;;0.22;0.22;;;;;;;;;;6268868;22;20031;-93
2022/10/20 13:06:20;;;;;;;0.30;0.30;;;;;;;;;;6216291;22;20016;-91
2022/10/20 13:09:06;;;;;;;0.20;0.20;;;;;;;;;;6273978;22;20023;-90
2022/10/20 13:11:39;;;;;;;0.20;0.20;;;;;;;;;;6299333;22;20018;-92
2022/10/20 13:22:23;;;;;;;0.20;0.20;;;;;;;;;;6281590;22;20047;-91
2022/10/20 13:35:56;;;;;;;0.13;0.13;;;;;;;;;;6262997;22;20028;-91
2022/10/20 13:42:00;;;;;;;0.30;0.30;;;;;;;;;;6258719;22;20011;-92
2022/10/20 13:44:43;;;;;;;0.20;0.20;;;;;;;;;;6245406;23;20016;-94
2022/10/20 13:47:13;;;;;;;0.13;0.13;;;;;;;;;;6269611;22;20031;-91
2022/10/20 13:50:13;;;;;;;0.20;0.20;;;;;;;;;;6243407;23;20091;-90
2022/10/20 13:52:48;;;;;;;0.22;0.22;;;;;;;;;;6262152;23;20028;-93
2022/10/20 13:55:23;;;;;;;0.28;0.28;;;;;;;;;;6241495;23;20039;-93
2022/10/20 13:57:56;;;;;;;0.30;0.30;;;;;;;;;;6242732;23;20043;-93
2022/10/20 14:00:25;;;;;;;0.35;0.35;;;;;;;;;;6267719;22;20024;-92
2022/10/20 14:03:02;;;;;;;0.20;0.20;;;;;;;;;;6241594;23;20024;-93
2022/10/20 14:05:53;;;;;;;0.28;0.28;;;;;;;;;;6244481;23;20038;-91
2022/10/20 14:13:33;;;;;;;0.40;0.40;;;;;;;;;;6213540;22;20024;-92
2022/10/20 14:16:10;;;;;;;0.25;0.25;;;;;;;;;;6183050;22;20032;-93
2022/10/20 14:31:36;;;;;;;0.20;0.20;;;;;;;;;;6211283;22;20050;-92
2022/10/20 14:34:02;;;;;;;0.30;0.30;;;;;;;;;;6272752;22;20099;-94
2022/10/20 14:36:29;;;;;;;0.30;0.30;;;;;;;;;;6272203;22;20030;-95
2022/10/20 14:38:57;;;;;;;0.40;0.40;;;;;;;;;;6272182;22;20437;-95
2022/10/20 14:41:29;;;;;;;0.20;0.20;;;;;;;;;;6273037;22;19999;-96
2022/10/20 14:44:06;;;;;;;0.30;0.30;;;;;;;;;;6275296;22;20007;-96
2022/10/20 14:49:31;;;;;;;0.28;0.28;;;;;;;;;;6225074;22;20027;-95
2022/10/20 14:54:36;;;;;;;0.20;0.20;;;;;;;;;;6303727;22;19918;-93
2022/10/20 14:57:08;;;;;;;0.30;0.30;;;;;;;;;;6277940;22;20023;-94
2022/10/20 14:59:54;;;;;;;0.20;0.20;;;;;;;;;;6276495;22;20045;-96
2022/10/20 15:02:32;;;;;;;0.20;0.20;;;;;;;;;;6277104;22;20098;-93
2022/10/20 15:05:18;;;;;;;0.20;0.20;;;;;;;;;;6277548;22;20093;-93
2022/10/20 15:26:05;;;;;;;0.20;0.20;;;;;;;;;;6324910;22;20023;-92
2022/10/20 15:28:49;;;;;;;0.17;0.17;;;;;;;;;;6300632;22;20072;-91
2022/10/20 15:47:11;;;;;;;0.20;0.20;;;;;;;;;;6271172;22;20027;-93
2022/10/20 16:13:28;;;;;;;0.20;0.20;;;;;;;;;;6280947;22;20034;-95
2022/10/20 16:16:19;;;;;;;0.10;0.10;;;;;;;;;;6267915;22;20027;-93
2022/10/20 16:18:47;;;;;;;0.15;0.15;;;;;;;;;;6241290;23;20024;-93
2022/10/20 16:21:47;;;;;;;0.17;0.17;;;;;;;;;;6248950;23;20016;-96
2022/10/20 16:24:32;;;;;;;0.30;0.30;;;;;;;;;;6261278;22;20008;-93
2022/10/20 16:27:11;;;;;;;0.20;0.20;;;;;;;;;;6268874;23;20007;-91
2022/10/20 16:42:51;;;;;;;0.30;0.30;;;;;;;;;;6259817;22;20008;-94
2022/10/20 16:45:22;;;;;;;0.20;0.20;;;;;;;;;;6271181;22;20015;-95
2022/10/20 18:16:48;;;;;;;0.10;0.10;;;;;;;;;;6223440;22;20046;-88
2022/10/20 18:19:20;;;;;;;0.20;0.20;;;;;;;;;;6272107;22;20020;-89
2022/10/20 18:32:02;;;;;;;0.20;0.20;;;;;;;;;;6283176;22;20038;-89
2022/10/20 18:35:18;;;;;;;0.20;0.20;;;;;;;;;;6158320;23;20502;-91
2022/10/20 18:37:54;;;;;;;0.20;0.20;;;;;;;;;;6099170;23;20019;-89
2022/10/20 18:54:12;;;;;;;0.20;0.20;;;;;;;;;;6189996;23;20016;-90
2022/10/20 18:56:48;;;;;;;0.20;0.20;;;;;;;;;;6252274;22;20026;-89
2022/10/20 18:59:24;;;;;;;0.10;0.10;;;;;;;;;;6273080;22;20069;-88
2022/10/20 19:02:10;;;;;;;0.20;0.20;;;;;;;;;;6247655;22;20074;-90
2022/10/20 19:05:18;;;;;;;0.20;0.20;;;;;;;;;;6233569;23;20083;-89
2022/10/20 19:07:51;;;;;;;0.10;0.10;;;;;;;;;;6246349;23;20027;-90
2022/10/20 19:10:32;;;;;;;0.28;0.28;;;;;;;;;;6247466;23;20016;-89
2022/10/20 19:13:11;;;;;;;0.25;0.25;;;;;;;;;;6246097;23;20064;-89
2022/10/20 19:45:07;;;;;;;0.30;0.30;;;;;;;;;;6269562;22;20020;-88
2022/10/20 19:47:40;;;;;;;0.20;0.20;;;;;;;;;;6249461;23;20020;-88
2022/10/20 19:50:07;;;;;;;0.22;0.22;;;;;;;;;;6248810;23;20000;-89
2022/10/20 19:52:37;;;;;;;0.30;0.30;;;;;;;;;;6245450;23;20024;-89
2022/10/20 19:55:05;;;;;;;0.20;0.20;;;;;;;;;;6245674;23;20051;-89
2022/10/20 19:57:32;;;;;;;0.28;0.28;;;;;;;;;;6270686;23;20016;-89
2022/10/20 19:59:59;;;;;;;0.20;0.20;;;;;;;;;;6267612;23;20016;-90
2022/10/20 20:02:26;;;;;;;0.20;0.20;;;;;;;;;;6242297;23;20004;-89
2022/10/20 20:04:55;;;;;;;0.30;0.30;;;;;;;;;;6270630;23;20027;-90
2022/10/20 20:07:29;;;;;;;0.20;0.20;;;;;;;;;;6244719;23;20019;-89
2022/10/20 20:10:02;;;;;;;0.30;0.30;;;;;;;;;;6221726;23;20039;-89
2022/10/20 20:12:38;;;;;;;0.20;0.20;;;;;;;;;;6272564;22;20001;-90
2022/10/20 20:15:07;;;;;;;0.20;0.20;;;;;;;;;;6221330;23;20462;-90
2022/10/20 20:17:36;;;;;;;0.10;0.10;;;;;;;;;;6243399;23;20020;-90
2022/10/20 20:20:02;;;;;;;0.28;0.28;;;;;;;;;;6247812;23;20004;-90
2022/10/20 20:22:32;;;;;;;0.20;0.20;;;;;;;;;;6217498;23;20522;-89
2022/10/20 20:24:58;;;;;;;0.20;0.20;;;;;;;;;;6238476;23;20102;-90
2022/10/20 20:27:27;;;;;;;0.20;0.20;;;;;;;;;;6240145;23;20019;-88
2022/10/20 20:29:58;;;;;;;0.20;0.20;;;;;;;;;;6242645;23;20095;-89
2022/10/20 20:32:33;;;;;;;0.20;0.20;;;;;;;;;;6269719;23;20076;-89
2022/10/20 20:35:02;;;;;;;0.22;0.22;;;;;;;;;;6216020;23;20027;-89
2022/10/20 20:37:28;;;;;;;0.15;0.15;;;;;;;;;;6217731;23;20020;-89
2022/10/20 20:39:58;;;;;;;0.20;0.20;;;;;;;;;;6245692;23;20027;-89
2022/10/20 20:42:53;;;;;;;0.20;0.20;;;;;;;;;;6229456;23;20022;-90
2022/10/20 20:45:32;;;;;;;0.30;0.30;;;;;;;;;;6269219;23;20064;-88
2022/10/20 20:48:04;;;;;;;0.10;0.10;;;;;;;;;;6240470;23;20023;-89
2022/10/20 20:50:38;;;;;;;0.20;0.20;;;;;;;;;;6269881;22;20051;-90
2022/10/20 20:53:08;;;;;;;0.20;0.20;;;;;;;;;;6246676;23;20060;-90
2022/10/20 20:55:41;;;;;;;0.10;0.10;;;;;;;;;;6243153;23;20034;-89
2022/10/20 20:58:07;;;;;;;0.20;0.20;;;;;;;;;;6246616;23;20038;-89
2022/10/20 21:00:37;;;;;;;0.13;0.13;;;;;;;;;;6245924;23;20008;-88
2022/10/20 21:03:03;;;;;;;0.10;0.10;;;;;;;;;;6245710;23;20004;-89
2022/10/20 21:06:05;;;;;;;0.20;0.20;;;;;;;;;;6245652;23;20016;-89
2022/10/20 21:08:52;;;;;;;0.20;0.20;;;;;;;;;;6271821;23;20017;-89
2022/10/20 21:11:32;;;;;;;0.20;0.20;;;;;;;;;;6215901;23;20012;-89
2022/10/20 21:14:12;;;;;;;0.30;0.30;;;;;;;;;;6239465;23;20015;-88
2022/10/20 21:17:01;;;;;;;;;;;;;;;;;;;;;
2022/10/20 21:22:52;;;;;;;0.20;0.20;;;;;;;;;;6272063;23;20047;-89
2022/10/20 21:25:39;;;;;;;0.30;0.30;;;;;;;;;;6273928;22;20004;-89
2022/10/20 21:28:05;;;;;;;0.17;0.17;;;;;;;;;;6242296;23;20059;-88
2022/10/20 21:30:31;;;;;;;0.20;0.20;;;;;;;;;;6244052;23;20024;-89
2022/10/20 21:36:46;;;;;;;;;;;;;;;;;;;;;
2022/10/20 21:39:39;;;;;;;0.25;0.25;;;;;;;;;;6283520;22;20019;-90
2022/10/20 21:45:46;;;;;;;0.15;0.15;;;;;;;;;;6221158;23;20148;-91
2022/10/20 22:14:23;;;;;;;0.10;0.10;;;;;;;;;;6206949;22;20003;-89
2022/10/20 22:17:13;;;;;;;0.20;0.20;;;;;;;;;;6276531;22;20071;-89
2022/10/20 22:23:16;;;;;;;0.30;0.30;;;;;;;;;;6313994;22;20010;-90
2022/10/20 22:25:53;;;;;;;0.20;0.20;;;;;;;;;;6278027;22;20003;-90
2022/10/20 22:28:40;;;;;;;0.25;0.25;;;;;;;;;;6250002;22;20019;-89
2022/10/20 22:31:50;;;;;;;0.30;0.30;;;;;;;;;;6302954;22;20034;-90
2022/10/20 22:34:31;;;;;;;0.20;0.20;;;;;;;;;;6272498;22;20046;-90
2022/10/20 22:37:06;;;;;;;0.40;0.40;;;;;;;;;;6271857;22;20004;-88
2022/10/20 22:39:32;;;;;;;0.20;0.20;;;;;;;;;;6269484;22;20015;-89
2022/10/20 22:42:02;;;;;;;0.10;0.10;;;;;;;;;;6269231;22;20064;-89
2022/10/20 22:44:29;;;;;;;0.10;0.10;;;;;;;;;;6267831;22;20086;-88
2022/10/20 22:47:07;;;;;;;0.28;0.28;;;;;;;;;;6271170;22;20020;-90
2022/10/20 22:49:33;;;;;;;0.10;0.10;;;;;;;;;;6271724;22;20015;-90
2022/10/20 22:55:57;;;;;;;;;;;;;;;;;;;;;
2022/10/20 22:58:51;;;;;;;;;;;;;;;;;;6227084;22;20065;-89
2022/10/20 23:08:31;;;;;;;0.08;0.08;;;;;;;;;;6313364;22;20030;-90
2022/10/20 23:11:01;;;;;;;0.17;0.17;;;;;;;;;;6277158;22;20011;-89
2022/10/20 23:14:02;;;;;;;0.20;0.20;;;;;;;;;;6227856;22;20024;-90
2022/10/20 23:16:28;;;;;;;0.20;0.20;;;;;;;;;;6274618;22;20019;-90
2022/10/20 23:26:05;;;;;;;0.20;0.20;;;;;;;;;;6289550;22;20041;-90
